KHVE/HVE METAR and TAF weather

Enter ICAO airport designator
Station Type Date Time Source
KHVE METAR 2022/09/29 21:15 UTC NOAA

KHVE 292115Z AUTO 15008KT 10SM BKN095 29/03 A3009 RMK AO2


Station Type Date Time Source
KHVE Decoded METAR 2022/09/29 21:15 UTC NOAA

Station name not available
Sep 29, 2022 - 05:15 PM EDT / 2022.09.29 2115 UTC
Wind: from the SSE (150 degrees) at 9 MPH (8 KT):0
Visibility: 10 mile(s):0
Sky conditions: mostly cloudy
Temperature: 84 F (29 C)
Dew Point: 37 F (3 C)
Relative Humidity: 18%
Pressure (altimeter): 30.09 in. Hg (1018 hPa)
ob: KHVE 292115Z AUTO 15008KT 10SM BKN095 29/03 A3009 RMK AO2
cycle: 21

Station Type Date Time Source
KHVE TAF UTC NOAA

Error!

Example: see airport list